sensor_id;sensor_type;location;lat;lon;timestamp;pressure;altitude;pressure_sealevel;temperature;humidity
37206;BME280;23099;42.636;23.198;2023-05-11T00:01:50;92129.09;;;9.45;100.00
37206;BME280;23099;42.636;23.198;2023-05-11T00:04:17;92134.78;;;9.44;100.00
37206;BME280;23099;42.636;23.198;2023-05-11T00:06:43;92126.69;;;9.40;100.00
37206;BME280;23099;42.636;23.198;2023-05-11T00:09:11;92132.03;;;9.40;100.00
37206;BME280;23099;42.636;23.198;2023-05-11T00:11:38;92128.22;;;9.41;100.00
37206;BME280;23099;42.636;23.198;2023-05-11T00:14:05;92135.47;;;9.41;100.00
37206;BME280;23099;42.636;23.198;2023-05-11T00:16:32;92139.25;;;9.40;100.00
37206;BME280;23099;42.636;23.198;2023-05-11T00:18:58;92128.94;;;9.38;99.02
37206;BME280;23099;42.636;23.198;2023-05-11T00:21:25;92133.91;;;9.40;98.70
37206;BME280;23099;42.636;23.198;2023-05-11T00:23:52;92132.78;;;9.41;98.71
37206;BME280;23099;42.636;23.198;2023-05-11T00:26:20;92135.53;;;9.44;99.17
37206;BME280;23099;42.636;23.198;2023-05-11T00:28:46;92141.13;;;9.39;98.93
37206;BME280;23099;42.636;23.198;2023-05-11T00:31:13;92134.63;;;9.37;99.02
37206;BME280;23099;42.636;23.198;2023-05-11T00:33:40;92135.41;;;9.37;99.21
37206;BME280;23099;42.636;23.198;2023-05-11T00:36:06;92138.13;;;9.41;99.15
37206;BME280;23099;42.636;23.198;2023-05-11T00:38:33;92144.94;;;9.38;99.57
37206;BME280;23099;42.636;23.198;2023-05-11T00:41:01;92137.00;;;9.42;99.60
37206;BME280;23099;42.636;23.198;2023-05-11T00:43:29;92141.13;;;9.39;100.00
37206;BME280;23099;42.636;23.198;2023-05-11T00:45:55;92140.38;;;9.39;100.00
37206;BME280;23099;42.636;23.198;2023-05-11T00:48:22;92143.47;;;9.41;100.00
37206;BME280;23099;42.636;23.198;2023-05-11T00:50:49;92130.81;;;9.38;99.63
37206;BME280;23099;42.636;23.198;2023-05-11T00:53:16;92130.06;;;9.37;100.00
37206;BME280;23099;42.636;23.198;2023-05-11T00:55:43;92130.06;;;9.37;100.00
37206;BME280;23099;42.636;23.198;2023-05-11T00:58:10;92136.16;;;9.38;100.00
37206;BME280;23099;42.636;23.198;2023-05-11T01:00:38;92134.97;;;9.35;100.00
37206;BME280;23099;42.636;23.198;2023-05-11T01:03:05;92136.34;;;9.29;98.88
37206;BME280;23099;42.636;23.198;2023-05-11T01:05:35;92136.72;;;9.28;97.47
37206;BME280;23099;42.636;23.198;2023-05-11T01:08:11;92128.56;;;9.20;97.41
37206;BME280;23099;42.636;23.198;2023-05-11T01:10:42;92116.63;;;9.14;96.90
37206;BME280;23099;42.636;23.198;2023-05-11T01:13:17;92123.84;;;9.14;97.25
37206;BME280;23099;42.636;23.198;2023-05-11T01:15:50;92133.25;;;9.08;96.91
37206;BME280;23099;42.636;23.198;2023-05-11T01:18:23;92134.53;;;8.98;96.42
37206;BME280;23099;42.636;23.198;2023-05-11T01:20:54;92132.22;;;8.97;96.55
37206;BME280;23099;42.636;23.198;2023-05-11T01:23:37;92133.25;;;8.92;96.52
37206;BME280;23099;42.636;23.198;2023-05-11T01:26:21;92137.56;;;8.81;95.87
37206;BME280;23099;42.636;23.198;2023-05-11T01:29:07;92142.88;;;8.81;96.60
37206;BME280;23099;42.636;23.198;2023-05-11T01:31:39;92140.22;;;8.81;96.93
37206;BME280;23099;42.636;23.198;2023-05-11T01:34:11;92141.09;;;8.85;96.52
37206;BME280;23099;42.636;23.198;2023-05-11T01:36:43;92139.09;;;8.82;96.34
37206;BME280;23099;42.636;23.198;2023-05-11T01:39:14;92132.31;;;8.84;96.31
37206;BME280;23099;42.636;23.198;2023-05-11T01:41:45;92133.53;;;8.87;96.03
37206;BME280;23099;42.636;23.198;2023-05-11T01:44:17;92139.53;;;8.84;96.50
37206;BME280;23099;42.636;23.198;2023-05-11T01:46:47;92143.50;;;8.90;97.10
37206;BME280;23099;42.636;23.198;2023-05-11T01:49:16;92134.03;;;8.93;96.58
37206;BME280;23099;42.636;23.198;2023-05-11T01:51:44;92137.88;;;8.95;96.31
37206;BME280;23099;42.636;23.198;2023-05-11T01:54:14;92143.16;;;8.92;96.22
37206;BME280;23099;42.636;23.198;2023-05-11T01:56:43;92140.91;;;8.94;96.00
37206;BME280;23099;42.636;23.198;2023-05-11T01:59:10;92133.69;;;8.94;95.73
37206;BME280;23099;42.636;23.198;2023-05-11T02:01:39;92134.88;;;8.97;95.69
37206;BME280;23099;42.636;23.198;2023-05-11T02:04:08;92143.16;;;8.92;95.64
37206;BME280;23099;42.636;23.198;2023-05-11T02:06:36;92141.94;;;8.89;95.19
37206;BME280;23099;42.636;23.198;2023-05-11T02:09:06;92139.63;;;8.88;95.37
37206;BME280;23099;42.636;23.198;2023-05-11T02:11:34;92137.31;;;8.86;95.83
37206;BME280;23099;42.636;23.198;2023-05-11T02:14:04;92129.56;;;8.81;96.23
37206;BME280;23099;42.636;23.198;2023-05-11T02:16:32;92130.84;;;8.87;96.57
37206;BME280;23099;42.636;23.198;2023-05-11T02:19:01;92133.09;;;8.85;96.28
37206;BME280;23099;42.636;23.198;2023-05-11T02:21:31;92130.41;;;8.85;96.46
37206;BME280;23099;42.636;23.198;2023-05-11T02:23:59;92130.69;;;8.80;96.21
37206;BME280;23099;42.636;23.198;2023-05-11T02:26:26;92130.00;;;8.83;96.80
37206;BME280;23099;42.636;23.198;2023-05-11T02:28:53;92129.22;;;8.82;96.91
37206;BME280;23099;42.636;23.198;2023-05-11T02:31:26;92120.28;;;8.75;96.20
37206;BME280;23099;42.636;23.198;2023-05-11T02:33:57;92129.50;;;8.77;96.42
37206;BME280;23099;42.636;23.198;2023-05-11T02:36:28;92125.72;;;8.78;95.91
37206;BME280;23099;42.636;23.198;2023-05-11T02:39:02;92122.09;;;8.71;95.57
37206;BME280;23099;42.636;23.198;2023-05-11T02:41:31;92126.31;;;8.72;95.82
37206;BME280;23099;42.636;23.198;2023-05-11T02:44:02;92129.31;;;8.70;96.01
37206;BME280;23099;42.636;23.198;2023-05-11T02:46:32;92122.88;;;8.71;96.14
37206;BME280;23099;42.636;23.198;2023-05-11T02:49:02;92124.53;;;8.60;96.83
37206;BME280;23099;42.636;23.198;2023-05-11T02:51:33;92120.91;;;8.52;97.15
37206;BME280;23099;42.636;23.198;2023-05-11T02:54:01;92124.59;;;8.48;96.36
37206;BME280;23099;42.636;23.198;2023-05-11T02:56:31;92123.47;;;8.33;96.14
37206;BME280;23099;42.636;23.198;2023-05-11T02:58:59;92127.66;;;8.19;95.36
37206;BME280;23099;42.636;23.198;2023-05-11T03:01:27;92118.00;;;7.98;96.80
37206;BME280;23099;42.636;23.198;2023-05-11T03:03:54;92128.22;;;8.12;96.72
37206;BME280;23099;42.636;23.198;2023-05-11T03:06:20;92124.13;;;8.14;96.74
37206;BME280;23099;42.636;23.198;2023-05-11T03:08:48;92136.47;;;8.23;96.40
37206;BME280;23099;42.636;23.198;2023-05-11T03:11:16;92129.78;;;8.13;96.77
37206;BME280;23099;42.636;23.198;2023-05-11T03:13:43;92132.00;;;8.11;96.80
37206;BME280;23099;42.636;23.198;2023-05-11T03:16:11;92125.53;;;7.96;96.19
37206;BME280;23099;42.636;23.198;2023-05-11T03:18:39;92125.28;;;8.01;95.94
37206;BME280;23099;42.636;23.198;2023-05-11T03:21:06;92132.50;;;8.01;95.57
37206;BME280;23099;42.636;23.198;2023-05-11T03:23:34;92124.63;;;8.04;95.55
37206;BME280;23099;42.636;23.198;2023-05-11T03:26:03;92129.16;;;8.04;94.75
37206;BME280;23099;42.636;23.198;2023-05-11T03:28:31;92128.72;;;8.02;94.24
37206;BME280;23099;42.636;23.198;2023-05-11T03:30:59;92129.28;;;8.07;94.68
37206;BME280;23099;42.636;23.198;2023-05-11T03:33:26;92133.44;;;8.08;94.73
37206;BME280;23099;42.636;23.198;2023-05-11T03:35:53;92135.78;;;8.10;95.11
37206;BME280;23099;42.636;23.198;2023-05-11T03:38:21;92125.91;;;8.10;95.30
37206;BME280;23099;42.636;23.198;2023-05-11T03:40:51;92128.31;;;8.15;95.36
37206;BME280;23099;42.636;23.198;2023-05-11T03:43:20;92130.44;;;8.10;94.92
37206;BME280;23099;42.636;23.198;2023-05-11T03:45:49;92128.06;;;8.05;94.71
37206;BME280;23099;42.636;23.198;2023-05-11T03:48:17;92132.66;;;7.92;95.21
37206;BME280;23099;42.636;23.198;2023-05-11T03:50:45;92136.88;;;7.93;95.30
37206;BME280;23099;42.636;23.198;2023-05-11T03:53:12;92134.00;;;7.86;95.50
37206;BME280;23099;42.636;23.198;2023-05-11T03:55:39;92130.78;;;7.93;96.47
37206;BME280;23099;42.636;23.198;2023-05-11T03:58:06;92133.19;;;7.98;95.78
37206;BME280;23099;42.636;23.198;2023-05-11T04:00:37;92143.16;;;8.01;95.96
37206;BME280;23099;42.636;23.198;2023-05-11T04:03:05;92135.50;;;7.99;95.59
37206;BME280;23099;42.636;23.198;2023-05-11T04:05:32;92137.38;;;7.99;95.11
37206;BME280;23099;42.636;23.198;2023-05-11T04:07:59;92140.50;;;8.01;94.55
37206;BME280;23099;42.636;23.198;2023-05-11T04:10:26;92141.84;;;7.95;94.48
37206;BME280;23099;42.636;23.198;2023-05-11T04:12:52;92145.88;;;7.89;95.88
37206;BME280;23099;42.636;23.198;2023-05-11T04:15:19;92150.09;;;7.90;95.37
37206;BME280;23099;42.636;23.198;2023-05-11T04:17:48;92136.50;;;7.95;95.57
37206;BME280;23099;42.636;23.198;2023-05-11T04:20:15;92135.16;;;8.01;95.24
37206;BME280;23099;42.636;23.198;2023-05-11T04:22:41;92138.72;;;8.05;95.20
37206;BME280;23099;42.636;23.198;2023-05-11T04:25:08;92147.81;;;8.04;94.34
37206;BME280;23099;42.636;23.198;2023-05-11T04:27:35;92145.13;;;8.04;94.40
37206;BME280;23099;42.636;23.198;2023-05-11T04:30:02;92148.53;;;7.89;94.92
37206;BME280;23099;42.636;23.198;2023-05-11T04:32:29;92136.78;;;7.90;94.41
37206;BME280;23099;42.636;23.198;2023-05-11T04:34:57;92149.09;;;7.82;95.21
37206;BME280;23099;42.636;23.198;2023-05-11T04:37:24;92150.31;;;7.85;95.60
37206;BME280;23099;42.636;23.198;2023-05-11T04:39:51;92158.97;;;7.81;94.75
37206;BME280;23099;42.636;23.198;2023-05-11T04:42:17;92168.66;;;7.74;95.03
37206;BME280;23099;42.636;23.198;2023-05-11T04:44:44;92175.88;;;7.73;94.91
37206;BME280;23099;42.636;23.198;2023-05-11T04:47:11;92167.22;;;7.76;95.11
37206;BME280;23099;42.636;23.198;2023-05-11T04:49:37;92173.22;;;7.73;94.97
37206;BME280;23099;42.636;23.198;2023-05-11T04:52:06;92177.94;;;7.80;95.36
37206;BME280;23099;42.636;23.198;2023-05-11T04:54:33;92168.72;;;7.90;94.81
37206;BME280;23099;42.636;23.198;2023-05-11T04:57:01;92167.06;;;7.85;93.62
37206;BME280;23099;42.636;23.198;2023-05-11T04:59:27;92182.47;;;7.79;94.44
37206;BME280;23099;42.636;23.198;2023-05-11T05:01:54;92176.38;;;7.91;94.33
37206;BME280;23099;42.636;23.198;2023-05-11T05:04:21;92182.63;;;7.99;93.59
37206;BME280;23099;42.636;23.198;2023-05-11T05:06:47;92184.19;;;8.00;93.83
37206;BME280;23099;42.636;23.198;2023-05-11T05:09:16;92182.75;;;8.02;94.08
37206;BME280;23099;42.636;23.198;2023-05-11T05:11:42;92183.63;;;8.06;94.07
37206;BME280;23099;42.636;23.198;2023-05-11T05:14:09;92185.91;;;8.08;93.70
37206;BME280;23099;42.636;23.198;2023-05-11T05:16:36;92185.78;;;8.16;94.42
37206;BME280;23099;42.636;23.198;2023-05-11T05:19:02;92180.47;;;8.16;94.18
37206;BME280;23099;42.636;23.198;2023-05-11T05:21:29;92193.16;;;8.23;92.82
37206;BME280;23099;42.636;23.198;2023-05-11T05:23:56;92184.72;;;8.33;93.48
37206;BME280;23099;42.636;23.198;2023-05-11T05:26:24;92177.00;;;8.44;93.61
37206;BME280;23099;42.636;23.198;2023-05-11T05:28:51;92179.34;;;8.45;93.20
37206;BME280;23099;42.636;23.198;2023-05-11T05:31:18;92183.28;;;8.51;93.08
37206;BME280;23099;42.636;23.198;2023-05-11T05:33:44;92194.91;;;8.59;93.36
37206;BME280;23099;42.636;23.198;2023-05-11T05:36:11;92192.41;;;8.66;92.55
37206;BME280;23099;42.636;23.198;2023-05-11T05:38:38;92194.47;;;8.57;92.44
37206;BME280;23099;42.636;23.198;2023-05-11T05:41:04;92191.25;;;8.51;93.31
37206;BME280;23099;42.636;23.198;2023-05-11T05:43:33;92189.56;;;8.43;92.93
37206;BME280;23099;42.636;23.198;2023-05-11T05:45:59;92193.75;;;8.44;93.51
37206;BME280;23099;42.636;23.198;2023-05-11T05:48:26;92195.47;;;8.52;93.19
37206;BME280;23099;42.636;23.198;2023-05-11T05:50:53;92198.41;;;8.47;92.50
37206;BME280;23099;42.636;23.198;2023-05-11T05:53:19;92195.66;;;8.60;92.29
37206;BME280;23099;42.636;23.198;2023-05-11T05:55:46;92199.22;;;8.64;92.82
37206;BME280;23099;42.636;23.198;2023-05-11T05:58:13;92195.78;;;8.63;92.93
37206;BME280;23099;42.636;23.198;2023-05-11T06:00:41;92199.03;;;8.72;92.25
37206;BME280;23099;42.636;23.198;2023-05-11T06:03:07;92204.88;;;8.78;91.61
37206;BME280;23099;42.636;23.198;2023-05-11T06:05:34;92205.13;;;8.73;90.77
37206;BME280;23099;42.636;23.198;2023-05-11T06:08:01;92207.59;;;8.66;90.51
37206;BME280;23099;42.636;23.198;2023-05-11T06:10:28;92207.81;;;8.73;92.07
37206;BME280;23099;42.636;23.198;2023-05-11T06:12:54;92217.16;;;8.82;91.72
37206;BME280;23099;42.636;23.198;2023-05-11T06:15:21;92205.56;;;8.91;91.10
37206;BME280;23099;42.636;23.198;2023-05-11T06:17:49;92209.00;;;8.91;91.21
37206;BME280;23099;42.636;23.198;2023-05-11T06:20:16;92208.06;;;8.99;91.11
37206;BME280;23099;42.636;23.198;2023-05-11T06:22:43;92214.00;;;9.08;90.49
37206;BME280;23099;42.636;23.198;2023-05-11T06:25:09;92213.38;;;9.15;90.47
37206;BME280;23099;42.636;23.198;2023-05-11T06:27:36;92212.50;;;9.11;90.47
37206;BME280;23099;42.636;23.198;2023-05-11T06:30:03;92210.97;;;9.10;89.70
37206;BME280;23099;42.636;23.198;2023-05-11T06:32:31;92221.81;;;9.01;90.45
37206;BME280;23099;42.636;23.198;2023-05-11T06:34:59;92223.94;;;9.11;89.99
37206;BME280;23099;42.636;23.198;2023-05-11T06:37:28;92222.25;;;9.03;90.95
37206;BME280;23099;42.636;23.198;2023-05-11T06:39:54;92214.78;;;8.93;89.56
37206;BME280;23099;42.636;23.198;2023-05-11T06:42:21;92220.34;;;9.04;89.91
37206;BME280;23099;42.636;23.198;2023-05-11T06:44:48;92222.84;;;9.12;90.42
37206;BME280;23099;42.636;23.198;2023-05-11T06:47:15;92221.13;;;9.04;89.92
37206;BME280;23099;42.636;23.198;2023-05-11T06:49:42;92222.59;;;9.02;90.30
37206;BME280;23099;42.636;23.198;2023-05-11T06:52:10;92220.25;;;9.16;90.39
37206;BME280;23099;42.636;23.198;2023-05-11T06:54:36;92214.03;;;9.28;91.12
37206;BME280;23099;42.636;23.198;2023-05-11T06:57:03;92220.38;;;9.39;90.01
37206;BME280;23099;42.636;23.198;2023-05-11T06:59:30;92221.69;;;9.45;89.05
37206;BME280;23099;42.636;23.198;2023-05-11T07:01:57;92220.72;;;9.53;88.94
37206;BME280;23099;42.636;23.198;2023-05-11T07:04:24;92230.69;;;9.56;88.23
37206;BME280;23099;42.636;23.198;2023-05-11T07:06:52;92222.97;;;9.51;87.79
37206;BME280;23099;42.636;23.198;2023-05-11T07:09:20;92231.13;;;9.58;88.11
37206;BME280;23099;42.636;23.198;2023-05-11T07:11:47;92225.56;;;9.67;88.49
37206;BME280;23099;42.636;23.198;2023-05-11T07:14:15;92230.69;;;9.56;87.53
37206;BME280;23099;42.636;23.198;2023-05-11T07:16:42;92227.34;;;9.59;87.97
37206;BME280;23099;42.636;23.198;2023-05-11T07:19:08;92232.94;;;9.54;88.12
37206;BME280;23099;42.636;23.198;2023-05-11T07:21:35;92232.94;;;9.54;87.87
37206;BME280;23099;42.636;23.198;2023-05-11T07:24:03;92240.34;;;9.61;87.59
37206;BME280;23099;42.636;23.198;2023-05-11T07:26:31;92234.56;;;9.58;88.17
37206;BME280;23099;42.636;23.198;2023-05-11T07:28:58;92239.38;;;9.53;87.45
37206;BME280;23099;42.636;23.198;2023-05-11T07:31:25;92231.78;;;9.71;88.50
37206;BME280;23099;42.636;23.198;2023-05-11T07:33:51;92232.41;;;9.64;86.78
37206;BME280;23099;42.636;23.198;2023-05-11T07:36:18;92230.22;;;9.70;88.20
37206;BME280;23099;42.636;23.198;2023-05-11T07:38:45;92236.59;;;9.81;87.71
37206;BME280;23099;42.636;23.198;2023-05-11T07:41:12;92239.66;;;9.83;87.70
37206;BME280;23099;42.636;23.198;2023-05-11T07:43:40;92244.22;;;9.82;86.61
37206;BME280;23099;42.636;23.198;2023-05-11T07:46:07;92240.38;;;9.80;85.96
37206;BME280;23099;42.636;23.198;2023-05-11T07:48:33;92246.59;;;9.68;86.46
37206;BME280;23099;42.636;23.198;2023-05-11T07:51:00;92243.13;;;9.68;87.48
37206;BME280;23099;42.636;23.198;2023-05-11T07:53:27;92233.31;;;9.72;87.50
37206;BME280;23099;42.636;23.198;2023-05-11T07:55:54;92237.47;;;9.69;87.70
37206;BME280;23099;42.636;23.198;2023-05-11T07:58:20;92246.09;;;9.63;87.16
37206;BME280;23099;42.636;23.198;2023-05-11T08:00:48;92236.34;;;9.70;87.92
37206;BME280;23099;42.636;23.198;2023-05-11T08:03:15;92233.16;;;9.80;86.74
37206;BME280;23099;42.636;23.198;2023-05-11T08:05:43;92231.66;;;9.83;86.92
37206;BME280;23099;42.636;23.198;2023-05-11T08:08:11;92234.06;;;9.88;87.68
37206;BME280;23099;42.636;23.198;2023-05-11T08:10:39;92237.59;;;9.92;86.88
37206;BME280;23099;42.636;23.198;2023-05-11T08:13:07;92249.50;;;9.98;86.76
37206;BME280;23099;42.636;23.198;2023-05-11T08:15:35;92249.28;;;9.87;87.16
37206;BME280;23099;42.636;23.198;2023-05-11T08:18:04;92244.47;;;9.93;86.62
37206;BME280;23099;42.636;23.198;2023-05-11T08:20:31;92248.00;;;9.81;86.42
37206;BME280;23099;42.636;23.198;2023-05-11T08:22:58;92244.81;;;9.91;86.16
37206;BME280;23099;42.636;23.198;2023-05-11T08:25:25;92246.78;;;9.95;85.15
37206;BME280;23099;42.636;23.198;2023-05-11T08:27:52;92248.13;;;10.04;85.60
37206;BME280;23099;42.636;23.198;2023-05-11T08:30:18;92250.78;;;10.04;84.88
37206;BME280;23099;42.636;23.198;2023-05-11T08:32:45;92251.63;;;9.89;84.35
37206;BME280;23099;42.636;23.198;2023-05-11T08:35:13;92249.09;;;9.96;85.02
37206;BME280;23099;42.636;23.198;2023-05-11T08:37:40;92256.31;;;9.96;85.82
37206;BME280;23099;42.636;23.198;2023-05-11T08:40:09;92254.72;;;9.91;84.47
37206;BME280;23099;42.636;23.198;2023-05-11T08:42:39;92257.00;;;10.08;85.45
37206;BME280;23099;42.636;23.198;2023-05-11T08:45:06;92258.66;;;9.97;83.08
37206;BME280;23099;42.636;23.198;2023-05-11T08:47:33;92247.50;;;9.91;84.42
37206;BME280;23099;42.636;23.198;2023-05-11T08:50:00;92246.16;;;10.01;85.02
37206;BME280;23099;42.636;23.198;2023-05-11T08:52:29;92250.28;;;9.99;84.59
37206;BME280;23099;42.636;23.198;2023-05-11T08:54:56;92250.03;;;10.04;84.25
37206;BME280;23099;42.636;23.198;2023-05-11T08:57:23;92247.28;;;10.00;83.42
37206;BME280;23099;42.636;23.198;2023-05-11T08:59:52;92241.03;;;10.12;85.44
37206;BME280;23099;42.636;23.198;2023-05-11T09:02:19;92237.84;;;10.22;84.74
37206;BME280;23099;42.636;23.198;2023-05-11T09:04:46;92236.06;;;10.30;84.04
37206;BME280;23099;42.636;23.198;2023-05-11T09:07:15;92234.03;;;10.42;84.37
37206;BME280;23099;42.636;23.198;2023-05-11T09:09:44;92232.13;;;10.43;83.33
37206;BME280;23099;42.636;23.198;2023-05-11T09:12:11;92233.22;;;10.61;81.82
37206;BME280;23099;42.636;23.198;2023-05-11T09:14:37;92227.88;;;10.61;81.35
37206;BME280;23099;42.636;23.198;2023-05-11T09:17:04;92226.84;;;10.66;81.99
37206;BME280;23099;42.636;23.198;2023-05-11T09:19:31;92234.44;;;10.63;81.39
37206;BME280;23099;42.636;23.198;2023-05-11T09:21:58;92232.09;;;10.62;80.92
37206;BME280;23099;42.636;23.198;2023-05-11T09:24:25;92235.25;;;10.68;81.39
37206;BME280;23099;42.636;23.198;2023-05-11T09:27:06;92234.50;;;10.67;82.39
37206;BME280;23099;42.636;23.198;2023-05-11T09:29:33;92226.16;;;10.72;82.28
37206;BME280;23099;42.636;23.198;2023-05-11T09:32:00;92226.94;;;10.73;81.29
37206;BME280;23099;42.636;23.198;2023-05-11T09:34:27;92228.66;;;10.61;81.74
37206;BME280;23099;42.636;23.198;2023-05-11T09:36:55;92225.91;;;10.58;81.84
37206;BME280;23099;42.636;23.198;2023-05-11T09:39:27;92227.72;;;10.73;83.30
37206;BME280;23099;42.636;23.198;2023-05-11T09:42:13;92222.56;;;10.84;81.29
37206;BME280;23099;42.636;23.198;2023-05-11T09:44:41;92225.53;;;11.02;81.24
37206;BME280;23099;42.636;23.198;2023-05-11T09:47:12;92217.09;;;11.22;80.74
37206;BME280;23099;42.636;23.198;2023-05-11T09:49:39;92209.28;;;11.37;82.53
37206;BME280;23099;42.636;23.198;2023-05-11T09:52:08;92200.06;;;11.34;81.80
37206;BME280;23099;42.636;23.198;2023-05-11T09:54:40;92196.25;;;11.35;80.38
37206;BME280;23099;42.636;23.198;2023-05-11T09:57:22;92200.84;;;11.34;79.00
37206;BME280;23099;42.636;23.198;2023-05-11T09:59:50;92194.16;;;11.48;79.17
37206;BME280;23099;42.636;23.198;2023-05-11T10:02:18;92190.00;;;11.50;81.73
37206;BME280;23099;42.636;23.198;2023-05-11T10:04:45;92188.53;;;11.56;80.63
37206;BME280;23099;42.636;23.198;2023-05-11T10:07:22;92192.44;;;11.62;79.76
37206;BME280;23099;42.636;23.198;2023-05-11T10:09:51;92192.19;;;11.71;80.23
37206;BME280;23099;42.636;23.198;2023-05-11T10:12:20;92181.38;;;11.90;80.00
37206;BME280;23099;42.636;23.198;2023-05-11T10:14:50;92173.06;;;11.99;78.36
37206;BME280;23099;42.636;23.198;2023-05-11T10:17:19;92174.66;;;12.03;78.85
37206;BME280;23099;42.636;23.198;2023-05-11T10:19:46;92179.59;;;12.01;79.06
37206;BME280;23099;42.636;23.198;2023-05-11T10:22:14;92174.00;;;12.14;79.05
37206;BME280;23099;42.636;23.198;2023-05-11T10:24:41;92168.16;;;12.38;77.75
37206;BME280;23099;42.636;23.198;2023-05-11T10:27:09;92168.19;;;12.42;76.88
37206;BME280;23099;42.636;23.198;2023-05-11T10:29:36;92174.28;;;12.38;77.55
37206;BME280;23099;42.636;23.198;2023-05-11T10:32:05;92173.69;;;12.56;78.05
37206;BME280;23099;42.636;23.198;2023-05-11T10:34:33;92168.81;;;12.65;78.30
37206;BME280;23099;42.636;23.198;2023-05-11T10:37:00;92172.00;;;12.78;75.98
37206;BME280;23099;42.636;23.198;2023-05-11T10:39:27;92175.34;;;13.08;74.41
37206;BME280;23099;42.636;23.198;2023-05-11T10:42:02;92164.63;;;13.12;75.13
37206;BME280;23099;42.636;23.198;2023-05-11T10:44:54;92182.00;;;13.21;74.91
37206;BME280;23099;42.636;23.198;2023-05-11T10:48:03;92188.16;;;13.25;74.35
37206;BME280;23099;42.636;23.198;2023-05-11T10:50:57;92184.50;;;13.03;75.77
37206;BME280;23099;42.636;23.198;2023-05-11T10:53:38;92181.56;;;12.75;75.81
37206;BME280;23099;42.636;23.198;2023-05-11T10:56:21;92192.31;;;12.79;76.05
37206;BME280;23099;42.636;23.198;2023-05-11T10:59:14;92188.06;;;12.74;77.97
37206;BME280;23099;42.636;23.198;2023-05-11T11:01:43;92186.50;;;12.69;76.82
37206;BME280;23099;42.636;23.198;2023-05-11T11:04:12;92184.53;;;12.66;75.54
37206;BME280;23099;42.636;23.198;2023-05-11T11:06:40;92179.91;;;12.63;77.46
37206;BME280;23099;42.636;23.198;2023-05-11T11:09:08;92183.91;;;12.43;75.42
37206;BME280;23099;42.636;23.198;2023-05-11T11:11:38;92181.97;;;12.40;76.99
37206;BME280;23099;42.636;23.198;2023-05-11T11:14:06;92183.59;;;12.48;76.97
37206;BME280;23099;42.636;23.198;2023-05-11T11:16:33;92178.63;;;12.50;77.03
37206;BME280;23099;42.636;23.198;2023-05-11T11:19:35;92172.13;;;12.51;77.95
37206;BME280;23099;42.636;23.198;2023-05-11T11:22:03;92166.19;;;12.68;76.04
37206;BME280;23099;42.636;23.198;2023-05-11T11:24:44;92178.72;;;12.61;75.62
37206;BME280;23099;42.636;23.198;2023-05-11T11:27:11;92168.19;;;12.79;76.44
37206;BME280;23099;42.636;23.198;2023-05-11T11:29:38;92170.69;;;12.61;74.99
37206;BME280;23099;42.636;23.198;2023-05-11T11:32:24;92161.91;;;12.64;76.25
37206;BME280;23099;42.636;23.198;2023-05-11T11:34:53;92154.31;;;12.69;76.97
37206;BME280;23099;42.636;23.198;2023-05-11T11:37:20;92160.47;;;12.73;75.52
37206;BME280;23099;42.636;23.198;2023-05-11T11:39:54;92162.50;;;12.84;74.35
37206;BME280;23099;42.636;23.198;2023-05-11T11:42:36;92169.00;;;12.86;74.86
37206;BME280;23099;42.636;23.198;2023-05-11T11:45:31;92164.50;;;12.94;75.47
37206;BME280;23099;42.636;23.198;2023-05-11T11:48:11;92160.19;;;12.86;75.17
37206;BME280;23099;42.636;23.198;2023-05-11T11:50:42;92160.47;;;12.73;73.90
37206;BME280;23099;42.636;23.198;2023-05-11T11:53:10;92162.38;;;12.73;75.20
37206;BME280;23099;42.636;23.198;2023-05-11T11:55:48;92163.63;;;12.83;73.80
37206;BME280;23099;42.636;23.198;2023-05-11T12:01:17;92162.19;;;12.55;75.73
37206;BME280;23099;42.636;23.198;2023-05-11T12:03:46;92159.91;;;12.54;74.46
37206;BME280;23099;42.636;23.198;2023-05-11T12:06:20;92162.19;;;12.52;75.09
37206;BME280;23099;42.636;23.198;2023-05-11T12:08:47;92158.06;;;12.61;76.34
37206;BME280;23099;42.636;23.198;2023-05-11T12:11:16;92164.25;;;12.32;74.09
37206;BME280;23099;42.636;23.198;2023-05-11T12:13:43;92150.38;;;12.23;76.55
37206;BME280;23099;42.636;23.198;2023-05-11T12:16:14;92152.69;;;12.24;76.83
37206;BME280;23099;42.636;23.198;2023-05-11T12:18:50;92148.22;;;12.35;77.05
37206;BME280;23099;42.636;23.198;2023-05-11T12:21:19;92150.50;;;12.33;76.48
37206;BME280;23099;42.636;23.198;2023-05-11T12:23:51;92155.03;;;12.29;76.16
37206;BME280;23099;42.636;23.198;2023-05-11T12:26:20;92152.69;;;12.24;75.22
37206;BME280;23099;42.636;23.198;2023-05-11T12:28:47;92148.59;;;12.34;76.20
37206;BME280;23099;42.636;23.198;2023-05-11T12:31:15;92146.28;;;12.32;77.17
37206;BME280;23099;42.636;23.198;2023-05-11T12:33:45;92140.53;;;12.34;76.36
37206;BME280;23099;42.636;23.198;2023-05-11T12:36:14;92144.16;;;12.15;78.37
37206;BME280;23099;42.636;23.198;2023-05-11T12:38:46;92138.22;;;12.32;77.22
37206;BME280;23099;42.636;23.198;2023-05-11T12:41:17;92141.31;;;12.34;75.49
37206;BME280;23099;42.636;23.198;2023-05-11T12:43:45;92141.78;;;12.07;76.52
37206;BME280;23099;42.636;23.198;2023-05-11T12:46:12;92136.84;;;12.09;77.32
37206;BME280;23099;42.636;23.198;2023-05-11T12:48:39;92135.66;;;12.06;77.26
37206;BME280;23099;42.636;23.198;2023-05-11T12:51:06;92134.56;;;12.11;77.48
37206;BME280;23099;42.636;23.198;2023-05-11T12:53:34;92127.81;;;12.27;77.06
37206;BME280;23099;42.636;23.198;2023-05-11T12:56:02;92128.59;;;12.24;75.53
37206;BME280;23099;42.636;23.198;2023-05-11T12:58:34;92129.63;;;12.16;77.57
37206;BME280;23099;42.636;23.198;2023-05-11T13:01:01;92129.09;;;12.03;78.11
37206;BME280;23099;42.636;23.198;2023-05-11T13:03:29;92128.03;;;12.08;77.31
37206;BME280;23099;42.636;23.198;2023-05-11T13:06:04;92122.16;;;11.95;78.23
37206;BME280;23099;42.636;23.198;2023-05-11T13:08:30;92120.72;;;12.05;78.08
37206;BME280;23099;42.636;23.198;2023-05-11T13:11:16;92119.84;;;11.97;77.89